Monticello, Minnesota
Current Conditions -  °F | °C
As of 4:35 PM on Sunday 23 Nov 2014 (Local Time) from KCFE Reporting Station
Overcast Overcast  
Wind Chill: 32°   Ceiling: 3800
Heat Index: 37°   Visibility: 7mi
Dew Point: 35°   Wind: 6mph
Humidity: 93%   Direction: 250°WSW
Pressure: 29.42"   Gusts: NA
Location:  45.3°N, 93.8°W
Report Text: KCFE 232235Z AUTO 25005KT 7SM BKN038 OVC100 03/02 A2942 RMK AO2 T00250015
Loading
Personal Weather Stations






























Interactive Weather Map New forecast layout! Learn more

10-Day Weather Forecast

Advertisements
Track Severe Weather on mobile